Aérodrome :
LOGIN :

S'inscrire | Disclaimer

   EN    FR    IT 

 










Légende :    VFR   VFR Marginal   IFR   IFR Intensif   IFR Très Intensif
Visi : 
Plafond : 
>= 8 km
>= 3000ft
5 à 8 km
1000 à 3000 ft
1500m à 5 km
500 à 1000 ft
800 à 1500m
200 à 500 ft
< 800m
< 200 ft
Symboles :   Orages  Brouillard  Fortes neiges  Fortes précipitations  Vent > 20 kt
SIGMETs :   Divers  Orages  Givrage  Turbulence  Onde Orograph.  Cendres Volcan.






- Altitude de l'aérodrome : 164 ft
- Code IATA : VBY


ESSV - Visby

DERNIER METAR :
  • 251320Z 09009KT 9999 FEW007 SCT018 18/14 Q1002

METARs EXPIRÉS :
  • 251250Z 08009KT 050V110 CAVOK 18/13 Q1002
  • 251220Z 08008KT 060V120 CAVOK 18/14 Q1003
  • 251150Z 08009KT 9999 FEW018 18/13 Q1003
  • 251120Z 09007KT 050V120 9999 FEW018 18/12 Q1003
  • 251050Z 10007KT 060V130 9999 FEW016 18/13 Q1003

TAF TAF ESSV
Valide du 25 à 12h jusqu'au 25 à 21h UTC


251130Z 2512/2521 09012KT 9999 SCT015
TEMPO 2513/2516 BKN008
PROB40 2514/2518 TSRA SCT040CB



MET'MAP, la Météo Aéronautique d'un coup d'oeil ! - Copyright ORBIFLY Décembre 2007 - Disclaimer

ORBIFLY MET'MAP TEAM :

Programmation & Développement : Alexandra Zaïnal
Sur une idée originale de : Baudouin d'Aumeries
Assistance à la programmation : Marc-Olivier Méhu
Soutien technique & logistique : Manuel Goepfert

Contact : metmap@orbifly.com




SOURCES & CREDITS :

   NOAA